Time;durP1;ratioP1;P1;durP2;ratioP2;P2;SDS_P1;SDS_P2;PMS_P1;PMS_P2;Temp;Humidity;BMP_temperature;BMP_pressure;BME280_temperature;BME280_humidity;BME280_pressure;Samples;Min_cycle;Max_cycle;Signal;HPM_P1;HPM_P2
2021/05/22 00:01:09;;;;;;;222.00;203.73;;;11.10;99.90;;;;;;5058253;28;20519;-82
2021/05/22 00:03:36;;;;;;;206.63;190.87;;;11.10;99.90;;;;;;5057862;28;20884;-83
2021/05/22 00:06:02;;;;;;;158.97;144.03;;;11.10;99.90;;;;;;5057889;28;20523;-84
2021/05/22 00:08:29;;;;;;;237.17;219.50;;;11.10;99.90;;;;;;5058635;28;20543;-83
2021/05/22 00:10:55;;;;;;;246.93;226.97;;;11.00;99.90;;;;;;5058775;28;21051;-84
2021/05/22 00:13:22;;;;;;;175.37;159.80;;;11.00;99.90;;;;;;5057287;28;20958;-84
2021/05/22 00:15:48;;;;;;;265.17;243.67;;;11.00;99.90;;;;;;5058430;28;20466;-84
2021/05/22 00:18:15;;;;;;;156.20;141.50;;;11.00;99.90;;;;;;5065776;28;20475;-83
2021/05/22 00:20:41;;;;;;;185.63;169.10;;;11.00;99.90;;;;;;5058478;28;20488;-84
2021/05/22 00:23:09;;;;;;;220.13;203.33;;;10.90;99.90;;;;;;5057216;28;20498;-84
2021/05/22 00:25:36;;;;;;;314.43;292.70;;;10.90;99.90;;;;;;5057124;28;20444;-84
2021/05/22 00:28:03;;;;;;;301.00;279.93;;;10.90;99.90;;;;;;5057748;28;20455;-85
2021/05/22 00:30:29;;;;;;;374.40;348.27;;;10.90;99.90;;;;;;5057376;28;20495;-84
2021/05/22 00:32:56;;;;;;;506.53;474.03;;;10.90;99.90;;;;;;5056175;28;20480;-84
2021/05/22 00:35:22;;;;;;;400.60;376.13;;;10.90;99.90;;;;;;5057580;28;20454;-84
2021/05/22 00:37:48;;;;;;;334.70;312.90;;;10.90;99.90;;;;;;5060128;28;20593;-84
2021/05/22 00:40:15;;;;;;;434.40;409.30;;;10.90;99.90;;;;;;5060935;28;20448;-84
2021/05/22 00:42:44;;;;;;;604.83;564.27;;;10.90;99.90;;;;;;5060052;28;21129;-85
2021/05/22 00:45:16;;;;;;;488.03;460.00;;;10.90;99.90;;;;;;5060600;28;20447;-85
2021/05/22 00:47:44;;;;;;;514.07;483.80;;;10.90;99.90;;;;;;5061076;28;20471;-85
2021/05/22 00:50:14;;;;;;;515.67;485.67;;;10.80;99.90;;;;;;5060013;28;20588;-85
2021/05/22 00:52:41;;;;;;;567.73;534.67;;;10.80;99.90;;;;;;5059555;28;20479;-82
2021/05/22 00:55:08;;;;;;;616.87;582.30;;;10.80;99.90;;;;;;5060940;28;20493;-85
2021/05/22 00:57:36;;;;;;;539.47;507.33;;;10.80;99.90;;;;;;5060834;28;20460;-85
2021/05/22 01:00:04;;;;;;;612.67;573.97;;;10.80;99.90;;;;;;5060554;28;20456;-83
2021/05/22 01:02:31;;;;;;;618.40;581.20;;;10.70;99.90;;;;;;5059689;28;20451;-83
2021/05/22 01:04:57;;;;;;;564.47;532.60;;;10.70;99.90;;;;;;5060094;28;20484;-85
2021/05/22 01:07:24;;;;;;;591.33;558.50;;;10.60;99.90;;;;;;5059759;28;20452;-85
2021/05/22 01:09:55;;;;;;;636.23;599.77;;;10.60;99.90;;;;;;5059680;28;20562;-84
2021/05/22 01:12:27;;;;;;;644.63;607.77;;;10.60;99.90;;;;;;5059818;28;20924;-83
2021/05/22 01:14:59;;;;;;;527.40;498.10;;;10.50;99.90;;;;;;5060094;28;20456;-84
2021/05/22 01:17:27;;;;;;;600.57;566.83;;;10.50;99.90;;;;;;5060845;28;20439;-85
2021/05/22 01:20:01;;;;;;;572.33;539.20;;;10.50;99.90;;;;;;5059401;28;20531;-83
2021/05/22 01:22:32;;;;;;;652.80;614.77;;;10.50;99.90;;;;;;5059584;28;20505;-85
2021/05/22 01:25:05;;;;;;;618.10;583.07;;;10.50;99.90;;;;;;5059734;28;20447;-84
2021/05/22 01:27:33;;;;;;;539.07;509.37;;;10.50;99.90;;;;;;5060208;28;20470;-84
2021/05/22 01:30:00;;;;;;;587.63;553.80;;;10.40;99.90;;;;;;5060184;28;20487;-84
2021/05/22 01:32:27;;;;;;;632.23;594.60;;;10.50;99.90;;;;;;5058315;28;20834;-83
2021/05/22 01:34:55;;;;;;;596.20;563.13;;;10.40;99.90;;;;;;5059454;28;20515;-83
2021/05/22 01:37:21;;;;;;;583.83;550.37;;;10.40;99.90;;;;;;5060278;28;21029;-85
2021/05/22 01:39:47;;;;;;;475.40;449.00;;;10.30;99.90;;;;;;5060025;28;20462;-85
2021/05/22 01:42:14;;;;;;;559.90;526.87;;;10.30;99.90;;;;;;5058920;28;20493;-84
2021/05/22 01:44:46;;;;;;;529.53;501.53;;;10.30;99.90;;;;;;5059891;28;20448;-83
2021/05/22 01:47:14;;;;;;;497.67;469.90;;;10.30;99.90;;;;;;5058397;28;20531;-83
2021/05/22 01:49:40;;;;;;;604.13;570.30;;;10.30;99.90;;;;;;5060491;28;20517;-84
2021/05/22 01:52:08;;;;;;;630.37;593.50;;;10.30;99.90;;;;;;5059033;28;20458;-83
2021/05/22 01:54:36;;;;;;;593.27;559.70;;;10.30;99.90;;;;;;5058502;28;20479;-84
2021/05/22 01:57:03;;;;;;;591.47;557.90;;;10.20;99.90;;;;;;5060276;28;20459;-85
2021/05/22 01:59:29;;;;;;;475.83;449.27;;;10.20;99.90;;;;;;5060076;28;20891;-84
2021/05/22 02:01:57;;;;;;;508.97;481.90;;;10.20;99.90;;;;;;5058764;28;20456;-83
2021/05/22 02:04:27;;;;;;;655.07;611.67;;;10.30;99.90;;;;;;5060352;28;20571;-85
2021/05/22 02:06:55;;;;;;;516.10;488.00;;;10.30;99.90;;;;;;5060399;28;20452;-85
2021/05/22 02:09:22;;;;;;;380.07;357.67;;;10.30;99.90;;;;;;5060076;28;20525;-84
2021/05/22 02:11:52;;;;;;;474.83;449.10;;;10.40;99.90;;;;;;5059113;28;20467;-84
2021/05/22 02:14:24;;;;;;;452.20;426.63;;;10.40;99.90;;;;;;5060341;28;20464;-85
2021/05/22 02:16:53;;;;;;;534.30;504.60;;;10.40;99.90;;;;;;5061158;28;20550;-84
2021/05/22 02:19:23;;;;;;;609.80;570.57;;;10.40;99.90;;;;;;5068564;28;20452;-82
2021/05/22 02:21:50;;;;;;;428.63;403.20;;;10.40;99.90;;;;;;5057939;28;20456;-84
2021/05/22 02:24:18;;;;;;;495.47;467.57;;;10.40;99.90;;;;;;5059098;28;20507;-82
2021/05/22 02:26:45;;;;;;;525.87;497.47;;;10.40;99.90;;;;;;5058518;28;20456;-85
2021/05/22 02:29:16;;;;;;;888.13;813.80;;;10.40;99.90;;;;;;5059759;28;20490;-85
2021/05/22 02:31:45;;;;;;;482.20;455.83;;;10.40;99.90;;;;;;5058279;28;20448;-84
2021/05/22 02:34:12;;;;;;;366.67;345.67;;;10.40;99.90;;;;;;5059227;28;20452;-84
2021/05/22 02:36:41;;;;;;;524.27;494.23;;;10.40;99.90;;;;;;5058566;28;20456;-84
2021/05/22 02:39:08;;;;;;;611.37;576.47;;;10.40;99.90;;;;;;5058473;28;20448;-86
2021/05/22 02:41:35;;;;;;;455.47;428.67;;;10.40;99.90;;;;;;5058668;28;20448;-84
2021/05/22 02:44:04;;;;;;;448.23;423.57;;;10.50;99.90;;;;;;5058596;28;20475;-84
2021/05/22 02:46:35;;;;;;;451.13;425.97;;;10.50;99.90;;;;;;5058954;28;20459;-83
2021/05/22 02:49:02;;;;;;;462.73;436.63;;;10.50;99.90;;;;;;5058638;28;20519;-83
2021/05/22 02:51:29;;;;;;;541.53;511.37;;;10.50;99.90;;;;;;5058057;28;20452;-85
2021/05/22 02:53:59;;;;;;;972.13;876.13;;;10.50;99.90;;;;;;5058003;28;20603;-83
2021/05/22 02:56:26;;;;;;;418.47;395.40;;;10.50;99.90;;;;;;5058355;28;20448;-83
2021/05/22 02:58:55;;;;;;;504.40;476.30;;;10.60;99.90;;;;;;5058334;28;20509;-83
2021/05/22 03:01:21;;;;;;;613.00;570.30;;;10.60;99.90;;;;;;5057279;28;20444;-84
2021/05/22 03:03:48;;;;;;;506.13;476.87;;;10.60;99.90;;;;;;5058571;28;21061;-84
2021/05/22 03:06:15;;;;;;;585.53;550.43;;;10.60;99.90;;;;;;5058583;28;20452;-84
2021/05/22 03:08:45;;;;;;;687.27;641.00;;;10.70;99.90;;;;;;5058753;28;20531;-85
2021/05/22 03:11:13;;;;;;;494.40;467.60;;;10.80;99.90;;;;;;5057493;28;20448;-82
2021/05/22 03:13:40;;;;;;;695.40;647.27;;;10.90;99.90;;;;;;5058492;28;20447;-85
2021/05/22 03:16:06;;;;;;;695.93;654.00;;;10.90;99.90;;;;;;5058065;28;20444;-85
2021/05/22 03:18:33;;;;;;;829.90;770.40;;;11.00;99.90;;;;;;5058135;28;20455;-85
2021/05/22 03:20:59;;;;;;;649.50;612.60;;;11.00;99.90;;;;;;5058043;28;20505;-84
2021/05/22 03:23:26;;;;;;;705.53;663.17;;;11.00;99.90;;;;;;5058001;28;20472;-85
2021/05/22 03:25:53;;;;;;;624.77;587.77;;;11.00;99.90;;;;;;5059171;28;20457;-84
2021/05/22 03:28:21;;;;;;;704.23;661.83;;;11.10;99.90;;;;;;5057879;28;20815;-85
2021/05/22 03:30:47;;;;;;;653.57;613.60;;;11.10;99.90;;;;;;5057685;28;20523;-83
2021/05/22 03:33:13;;;;;;;677.37;637.33;;;11.10;99.90;;;;;;5057558;28;20555;-84
2021/05/22 03:35:40;;;;;;;1140.20;881.60;;;11.10;99.90;;;;;;5058451;28;20459;-84
2021/05/22 03:38:06;;;;;;;801.67;747.87;;;11.10;99.90;;;;;;5058489;28;20523;-84
2021/05/22 03:40:32;;;;;;;882.60;823.30;;;11.10;99.90;;;;;;5058403;28;20483;-85
2021/05/22 03:42:59;;;;;;;1001.23;915.87;;;11.00;99.90;;;;;;5056859;28;20472;-85
2021/05/22 03:45:26;;;;;;;779.93;731.20;;;11.00;99.90;;;;;;5058411;28;20482;-84
2021/05/22 03:47:52;;;;;;;765.77;718.83;;;10.90;99.90;;;;;;5056235;28;20527;-84
2021/05/22 03:50:19;;;;;;;825.57;772.67;;;10.90;99.90;;;;;;5058655;28;20499;-84
2021/05/22 03:52:45;;;;;;;716.33;672.37;;;10.90;99.90;;;;;;5056504;28;20486;-84
2021/05/22 03:55:13;;;;;;;562.13;530.00;;;11.00;99.90;;;;;;5079931;22;20493;-85
2021/05/22 03:57:40;;;;;;;916.87;846.87;;;11.10;99.90;;;;;;5041393;28;21022;-85
2021/05/22 04:00:08;;;;;;;811.67;756.10;;;11.10;99.90;;;;;;5043167;28;20467;-85
2021/05/22 04:02:35;;;;;;;899.60;830.07;;;11.10;99.90;;;;;;5040092;28;20456;-84
2021/05/22 04:05:02;;;;;;;786.90;738.77;;;11.10;99.90;;;;;;5042975;28;20464;-84
2021/05/22 04:07:29;;;;;;;838.53;785.07;;;11.20;99.90;;;;;;5040306;28;20460;-88
2021/05/22 04:09:55;;;;;;;576.27;542.37;;;11.20;99.90;;;;;;5037911;28;20484;-86
2021/05/22 04:12:21;;;;;;;728.17;683.20;;;11.30;99.90;;;;;;5039969;28;20482;-85
2021/05/22 04:14:48;;;;;;;798.40;751.13;;;11.40;99.90;;;;;;5041555;28;20676;-85
2021/05/22 04:17:14;;;;;;;758.07;712.47;;;11.30;99.90;;;;;;5040799;28;20452;-85
2021/05/22 04:19:41;;;;;;;855.53;787.90;;;11.30;99.90;;;;;;5041393;28;20532;-87
2021/05/22 04:22:07;;;;;;;822.73;770.63;;;11.40;99.90;;;;;;5041708;28;20532;-85
2021/05/22 04:24:34;;;;;;;843.60;774.33;;;11.40;99.90;;;;;;5042378;28;20483;-87
2021/05/22 04:27:00;;;;;;;904.57;844.87;;;11.50;99.90;;;;;;5044659;28;20948;-85
2021/05/22 04:29:26;;;;;;;788.53;738.27;;;11.50;99.90;;;;;;5045336;28;20545;-87
2021/05/22 04:31:53;;;;;;;868.67;804.70;;;11.50;99.90;;;;;;5045936;28;20463;-85
2021/05/22 04:34:19;;;;;;;769.77;724.07;;;11.40;99.90;;;;;;5045334;28;21036;-85
2021/05/22 04:36:46;;;;;;;734.97;690.00;;;11.50;99.90;;;;;;5053516;28;20512;-84
2021/05/22 04:39:12;;;;;;;795.33;744.57;;;11.40;99.90;;;;;;5058891;28;20444;-85
2021/05/22 04:41:39;;;;;;;1018.13;927.60;;;11.50;99.90;;;;;;5057607;28;20473;-87
2021/05/22 04:44:05;;;;;;;733.50;687.67;;;11.40;99.90;;;;;;5055980;28;20492;-84
2021/05/22 04:46:32;;;;;;;791.20;741.97;;;11.50;99.90;;;;;;5048383;28;20492;-85
2021/05/22 04:48:58;;;;;;;884.30;820.73;;;11.50;99.90;;;;;;5044803;28;20931;-83
2021/05/22 04:51:25;;;;;;;920.60;861.83;;;11.50;99.90;;;;;;5042908;28;20483;-84
2021/05/22 04:53:59;;;;;;;705.30;661.83;;;11.60;99.90;;;;;;5043628;28;20457;-85
2021/05/22 04:56:25;;;;;;;674.60;635.63;;;11.60;99.90;;;;;;5042457;28;20519;-84
2021/05/22 04:58:51;;;;;;;815.80;765.57;;;11.60;99.90;;;;;;5042508;28;20480;-85
2021/05/22 05:01:17;;;;;;;736.63;687.97;;;11.60;99.90;;;;;;5042284;28;20453;-85
2021/05/22 05:03:44;;;;;;;926.00;858.80;;;11.80;99.90;;;;;;5043688;28;20461;-84
2021/05/22 05:06:10;;;;;;;810.67;758.07;;;11.80;99.90;;;;;;5043538;28;20472;-85
2021/05/22 05:08:37;;;;;;;786.10;738.50;;;11.70;99.90;;;;;;5042879;28;20472;-86
2021/05/22 05:11:04;;;;;;;686.23;647.73;;;11.70;99.90;;;;;;5042965;28;20488;-85
2021/05/22 05:13:31;;;;;;;1002.30;913.13;;;11.60;99.90;;;;;;5041378;28;20457;-85
2021/05/22 05:15:57;;;;;;;750.30;705.67;;;11.60;99.90;;;;;;5042237;28;20484;-85
2021/05/22 05:18:23;;;;;;;666.67;628.57;;;11.60;99.90;;;;;;5042788;28;20463;-84
2021/05/22 05:20:50;;;;;;;797.93;748.83;;;11.70;99.90;;;;;;5042426;28;20899;-85
2021/05/22 05:23:16;;;;;;;734.60;685.90;;;11.70;99.90;;;;;;5045888;28;20539;-84
2021/05/22 05:25:42;;;;;;;807.60;759.07;;;11.80;99.90;;;;;;5045240;28;21023;-84
2021/05/22 05:28:10;;;;;;;759.63;714.03;;;11.80;99.90;;;;;;5042812;28;20460;-84
2021/05/22 05:30:36;;;;;;;681.13;641.53;;;11.70;99.90;;;;;;5036562;28;20500;-84
2021/05/22 05:33:03;;;;;;;723.97;678.70;;;11.70;99.90;;;;;;5035864;28;20956;-85
2021/05/22 05:35:29;;;;;;;683.80;643.63;;;11.70;99.90;;;;;;5036732;28;20541;-84
2021/05/22 05:37:55;;;;;;;967.47;898.40;;;11.70;99.90;;;;;;5036915;28;20957;-84
2021/05/22 05:40:21;;;;;;;685.83;646.30;;;11.80;99.90;;;;;;5037363;28;20441;-84
2021/05/22 05:42:49;;;;;;;990.73;903.70;;;12.00;99.90;;;;;;5036020;28;20819;-83
2021/05/22 05:45:17;;;;;;;664.37;625.43;;;12.10;99.90;;;;;;5039424;28;21016;-85
2021/05/22 05:47:43;;;;;;;768.37;718.73;;;12.10;99.90;;;;;;5040576;28;20517;-84
2021/05/22 05:50:12;;;;;;;1025.73;939.47;;;12.20;99.90;;;;;;5040975;28;20484;-86
2021/05/22 05:52:39;;;;;;;756.57;711.53;;;12.30;99.90;;;;;;5043029;28;20472;-85
2021/05/22 05:55:06;;;;;;;994.23;919.43;;;12.30;99.90;;;;;;5039142;28;20553;-84
2021/05/22 05:57:32;;;;;;;845.70;788.80;;;12.20;99.90;;;;;;5049250;28;20457;-85
2021/05/22 06:00:00;;;;;;;867.33;812.07;;;12.30;99.90;;;;;;5045440;28;20431;-83
2021/05/22 06:02:27;;;;;;;733.80;688.60;;;12.30;99.90;;;;;;5039057;28;20818;-85
2021/05/22 06:04:54;;;;;;;834.00;773.60;;;12.40;99.90;;;;;;5041248;28;21059;-85
2021/05/22 06:07:21;;;;;;;868.50;813.93;;;12.40;99.90;;;;;;5041863;28;20833;-84
2021/05/22 06:09:47;;;;;;;806.97;755.50;;;12.20;99.90;;;;;;5042632;28;20476;-83
2021/05/22 06:12:13;;;;;;;883.93;825.63;;;12.20;99.90;;;;;;5039765;28;20497;-82
2021/05/22 06:14:44;;;;;;;813.50;762.33;;;12.20;99.90;;;;;;5044336;28;20537;-85
2021/05/22 06:17:10;;;;;;;816.53;766.87;;;12.20;99.90;;;;;;5043684;28;20445;-85
2021/05/22 06:19:38;;;;;;;762.33;715.80;;;12.10;99.90;;;;;;5047208;28;20520;-86
2021/05/22 06:22:04;;;;;;;835.20;782.77;;;12.10;99.90;;;;;;5049004;28;20449;-85
2021/05/22 06:24:31;;;;;;;818.10;766.43;;;12.00;99.90;;;;;;5038814;28;20559;-83
2021/05/22 06:26:57;;;;;;;763.63;718.47;;;12.00;99.90;;;;;;5041335;28;20557;-84
2021/05/22 06:29:25;;;;;;;941.67;855.50;;;12.00;99.90;;;;;;5040709;28;20468;-82
2021/05/22 06:31:52;;;;;;;761.10;713.93;;;11.90;99.90;;;;;;5037933;28;20457;-84
2021/05/22 06:34:18;;;;;;;691.60;651.67;;;11.80;99.90;;;;;;5037086;28;20456;-84
2021/05/22 06:36:45;;;;;;;648.70;611.10;;;11.80;99.90;;;;;;5036385;28;20934;-82
2021/05/22 06:39:13;;;;;;;779.67;721.70;;;11.80;99.90;;;;;;5040650;28;20535;-83
2021/05/22 06:41:39;;;;;;;576.30;541.70;;;11.70;99.90;;;;;;5035786;28;20452;-83
2021/05/22 06:44:07;;;;;;;396.77;374.63;;;11.70;99.90;;;;;;5038924;28;20804;-83
2021/05/22 06:46:48;;;;;;;609.00;567.40;;;11.50;99.90;;;;;;5036799;28;20491;-83
2021/05/22 06:49:15;;;;;;;550.33;519.90;;;11.50;99.90;;;;;;5037190;28;20487;-86
2021/05/22 06:51:41;;;;;;;707.67;655.13;;;11.60;99.90;;;;;;5036270;28;20463;-84
2021/05/22 06:54:09;;;;;;;243.13;227.90;;;11.60;99.90;;;;;;5036718;28;20527;-83
2021/05/22 06:56:35;;;;;;;339.23;316.30;;;11.60;99.90;;;;;;5034724;28;20491;-82
2021/05/22 06:59:04;;;;;;;259.80;244.93;;;11.60;99.90;;;;;;5035941;28;20452;-81
2021/05/22 07:01:31;;;;;;;124.27;113.57;;;11.60;99.90;;;;;;5034519;28;20478;-83
2021/05/22 07:03:58;;;;;;;173.20;160.80;;;11.60;99.90;;;;;;5034986;28;20495;-84
2021/05/22 07:06:25;;;;;;;72.10;64.33;;;11.70;99.90;;;;;;5034610;28;21023;-83
2021/05/22 07:08:54;;;;;;;264.10;245.07;;;11.70;99.90;;;;;;5034267;28;20468;-85
2021/05/22 07:11:22;;;;;;;254.70;237.63;;;11.70;99.90;;;;;;5033059;28;20890;-86
2021/05/22 07:13:48;;;;;;;515.90;472.77;;;11.70;99.90;;;;;;5015304;28;20473;-81
2021/05/22 07:16:15;;;;;;;96.40;87.30;;;11.60;99.90;;;;;;5016719;28;20470;-82
2021/05/22 07:18:41;;;;;;;311.27;290.47;;;11.60;99.90;;;;;;5039117;28;20452;-83
2021/05/22 07:21:08;;;;;;;319.80;294.90;;;11.40;99.90;;;;;;5039703;28;20465;-82
2021/05/22 07:23:34;;;;;;;171.57;159.17;;;11.30;99.90;;;;;;5039833;28;20456;-83
2021/05/22 07:26:01;;;;;;;51.57;20.87;;;11.20;99.90;;;;;;5036546;28;20477;-83
2021/05/22 07:28:30;;;;;;;103.97;94.93;;;11.10;99.90;;;;;;5040272;28;20626;-82
2021/05/22 07:30:59;;;;;;;53.00;28.00;;;11.10;99.90;;;;;;5036087;28;20614;-83
2021/05/22 07:33:26;;;;;;;51.63;28.07;;;11.10;99.90;;;;;;5038737;28;20448;-83
2021/05/22 07:35:52;;;;;;;75.00;67.97;;;11.20;99.90;;;;;;5042052;28;20468;-82
2021/05/22 07:38:19;;;;;;;62.30;52.07;;;11.30;99.90;;;;;;5043199;28;20449;-82
2021/05/22 07:40:45;;;;;;;48.07;19.37;;;11.20;99.90;;;;;;5039972;28;20460;-82
2021/05/22 07:43:11;;;;;;;41.00;6.20;;;11.20;99.90;;;;;;5043248;28;20543;-83
2021/05/22 07:45:39;;;;;;;42.63;11.40;;;11.30;99.90;;;;;;5042713;28;20541;-82
2021/05/22 07:48:06;;;;;;;43.57;11.47;;;11.40;99.90;;;;;;5043597;28;20576;-83
2021/05/22 07:50:32;;;;;;;54.33;38.03;;;11.50;99.90;;;;;;5042913;28;20487;-83
2021/05/22 07:52:59;;;;;;;54.13;32.00;;;11.50;99.90;;;;;;5041779;28;20542;-83
2021/05/22 07:55:25;;;;;;;38.70;8.60;;;11.50;99.90;;;;;;5042966;28;20568;-84
2021/05/22 07:57:51;;;;;;;48.27;17.80;;;11.50;99.90;;;;;;5040482;28;20544;-83
2021/05/22 08:00:19;;;;;;;39.40;7.67;;;11.50;99.90;;;;;;5041858;28;20437;-83
2021/05/22 08:02:47;;;;;;;57.50;44.03;;;11.60;99.90;;;;;;5039622;28;20468;-84
2021/05/22 08:05:14;;;;;;;44.00;6.47;;;11.50;99.90;;;;;;5042863;28;20477;-83
2021/05/22 08:07:41;;;;;;;87.60;78.73;;;11.50;99.90;;;;;;5042892;28;20535;-83
2021/05/22 08:10:08;;;;;;;45.60;21.73;;;11.50;99.90;;;;;;5042633;28;20560;-83
2021/05/22 08:12:36;;;;;;;45.17;17.30;;;11.60;99.90;;;;;;5039293;28;20540;-84
2021/05/22 08:15:03;;;;;;;41.33;6.80;;;11.50;99.90;;;;;;5041727;28;20609;-84
2021/05/22 08:17:30;;;;;;;34.00;5.13;;;11.50;99.90;;;;;;5041189;28;20529;-84
2021/05/22 08:19:57;;;;;;;53.57;40.53;;;11.40;99.90;;;;;;5039479;28;20521;-83
2021/05/22 08:22:23;;;;;;;40.17;10.33;;;11.40;99.90;;;;;;5042760;28;20525;-82
2021/05/22 08:24:50;;;;;;;55.93;43.00;;;11.30;99.90;;;;;;5041236;28;20488;-81
2021/05/22 08:27:18;;;;;;;81.07;72.27;;;11.30;99.90;;;;;;5037157;28;20833;-85
2021/05/22 08:29:45;;;;;;;96.33;88.30;;;11.20;99.90;;;;;;5035656;28;20485;-82
2021/05/22 08:32:11;;;;;;;30.97;8.53;;;11.10;99.90;;;;;;5035021;28;20456;-82
2021/05/22 08:34:39;;;;;;;29.37;3.80;;;11.00;99.90;;;;;;5036508;28;20835;-79
2021/05/22 08:37:06;;;;;;;28.63;4.23;;;10.90;99.90;;;;;;5041481;28;20480;-84
2021/05/22 08:39:33;;;;;;;32.00;4.57;;;10.80;99.90;;;;;;5037910;28;20456;-82
2021/05/22 08:42:02;;;;;;;41.13;30.63;;;10.80;99.90;;;;;;5037911;28;20453;-85
2021/05/22 08:44:29;;;;;;;20.10;1.33;;;10.70;99.90;;;;;;5040795;28;20489;-84
2021/05/22 08:46:55;;;;;;;30.27;3.37;;;10.70;99.90;;;;;;5037277;28;20560;-84
2021/05/22 08:49:22;;;;;;;37.40;19.67;;;10.80;99.90;;;;;;5043726;28;20463;-84
2021/05/22 08:51:48;;;;;;;28.30;2.93;;;10.90;99.90;;;;;;5037760;28;20480;-83
2021/05/22 08:54:15;;;;;;;28.43;5.47;;;10.90;99.90;;;;;;5040771;28;20964;-84
2021/05/22 08:56:42;;;;;;;31.27;17.20;;;11.00;99.90;;;;;;5041619;28;20502;-84
2021/05/22 08:59:08;;;;;;;38.57;19.17;;;10.80;99.90;;;;;;5040333;28;20487;-83
2021/05/22 09:01:37;;;;;;;19.37;2.17;;;10.80;99.90;;;;;;5039280;28;20540;-83
2021/05/22 09:04:04;;;;;;;19.27;2.80;;;10.80;99.90;;;;;;5040823;28;20457;-82
2021/05/22 09:06:30;;;;;;;20.97;4.67;;;10.80;99.90;;;;;;5040690;28;20894;-82
2021/05/22 09:09:02;;;;;;;25.30;2.30;;;10.80;99.90;;;;;;5043992;28;20513;-84
2021/05/22 09:11:31;;;;;;;23.03;2.50;;;10.70;99.90;;;;;;5046332;28;20512;-83
2021/05/22 09:13:57;;;;;;;17.43;1.30;;;10.70;99.90;;;;;;5044694;28;20459;-83
2021/05/22 09:16:35;;;;;;;31.70;11.20;;;10.80;99.90;;;;;;5044715;28;20480;-85
2021/05/22 09:19:02;;;;;;;18.53;1.43;;;10.80;99.90;;;;;;5037070;28;20456;-85
2021/05/22 09:21:34;;;;;;;21.27;2.90;;;10.90;99.90;;;;;;5038678;28;20854;-84
2021/05/22 09:24:02;;;;;;;14.73;2.03;;;11.00;99.90;;;;;;5039666;28;20453;-83
2021/05/22 09:26:35;;;;;;;20.73;2.80;;;10.90;99.90;;;;;;5041515;28;20487;-81
2021/05/22 09:29:03;;;;;;;16.70;1.67;;;11.00;99.90;;;;;;5036835;28;20453;-83
2021/05/22 09:31:33;;;;;;;18.20;2.20;;;11.10;99.90;;;;;;5036262;28;20476;-82
2021/05/22 09:34:03;;;;;;;18.83;1.60;;;11.10;99.90;;;;;;5037379;28;20445;-83
2021/05/22 09:36:44;;;;;;;25.73;16.63;;;11.30;99.90;;;;;;5039739;28;20530;-82
2021/05/22 09:39:18;;;;;;;14.87;1.43;;;11.10;99.90;;;;;;5037958;28;20459;-85
2021/05/22 09:41:49;;;;;;;18.47;7.87;;;11.20;99.90;;;;;;5036999;28;20964;-84
2021/05/22 09:44:17;;;;;;;12.00;1.30;;;11.20;99.90;;;;;;5038525;28;20444;-84
2021/05/22 09:47:02;;;;;;;20.03;3.13;;;11.30;99.90;;;;;;5036995;28;20495;-82
2021/05/22 09:49:29;;;;;;;20.50;3.60;;;11.30;99.90;;;;;;5038549;28;20461;-84
2021/05/22 09:51:56;;;;;;;13.40;1.50;;;11.50;99.90;;;;;;5040478;28;20965;-85
2021/05/22 09:54:40;;;;;;;15.13;2.43;;;11.70;99.90;;;;;;5039222;28;20470;-82
2021/05/22 09:57:09;;;;;;;65.40;32.37;;;11.90;99.90;;;;;;5037293;28;20445;-82
2021/05/22 09:59:35;;;;;;;15.70;1.17;;;11.90;99.90;;;;;;5039273;28;20475;-83
2021/05/22 10:02:02;;;;;;;16.77;2.00;;;12.40;99.90;;;;;;5039368;28;20548;-81
2021/05/22 10:04:28;;;;;;;15.47;1.57;;;13.00;99.90;;;;;;5042331;28;20531;-82
2021/05/22 10:06:56;;;;;;;16.47;1.23;;;13.10;99.90;;;;;;5042389;28;20453;-85
2021/05/22 10:09:24;;;;;;;18.70;2.00;;;13.50;99.90;;;;;;5040211;28;20459;-85
2021/05/22 10:12:07;;;;;;;18.97;1.93;;;13.70;99.90;;;;;;5040650;28;20448;-84
2021/05/22 10:14:36;;;;;;;21.23;6.13;;;13.60;99.90;;;;;;5037887;28;20457;-85
2021/05/22 10:17:04;;;;;;;22.93;9.50;;;13.40;99.90;;;;;;5041911;28;20531;-83
2021/05/22 10:19:31;;;;;;;24.77;2.33;;;13.20;99.90;;;;;;5042677;28;20502;-85
2021/05/22 10:21:58;;;;;;;18.80;1.77;;;13.30;99.90;;;;;;5043319;28;20544;-86
2021/05/22 10:24:25;;;;;;;19.20;1.60;;;13.30;99.90;;;;;;5047794;28;21008;-81
2021/05/22 10:26:52;;;;;;;19.43;1.90;;;13.10;99.90;;;;;;5044737;28;20453;-82
2021/05/22 10:29:19;;;;;;;18.97;1.57;;;12.90;99.90;;;;;;5036727;28;20451;-86
2021/05/22 10:31:46;;;;;;;23.43;2.20;;;12.80;99.90;;;;;;5043070;28;20476;-86
2021/05/22 10:34:14;;;;;;;29.67;1.83;;;12.80;99.90;;;;;;5043247;28;21011;-83
2021/05/22 10:36:50;;;;;;;16.23;1.20;;;12.90;99.90;;;;;;5043531;28;20556;-86
2021/05/22 10:39:34;;;;;;;19.13;2.80;;;13.00;99.90;;;;;;5044948;23;20583;-86
2021/05/22 10:42:00;;;;;;;16.40;4.30;;;12.80;99.90;;;;;;5030135;28;20452;-84
2021/05/22 10:44:28;;;;;;;21.60;1.70;;;12.80;99.90;;;;;;5030039;28;20449;-85
2021/05/22 10:47:14;;;;;;;61.00;55.83;;;12.90;99.90;;;;;;5029511;28;21048;-85
2021/05/22 10:49:54;;;;;;;17.40;2.70;;;13.00;99.90;;;;;;5029379;28;20500;-85
2021/05/22 10:52:23;;;;;;;21.97;2.27;;;13.10;99.90;;;;;;5028860;28;20480;-86
2021/05/22 10:55:01;;;;;;;19.60;1.57;;;13.30;99.90;;;;;;5029105;28;20514;-86
2021/05/22 10:57:28;;;;;;;17.53;1.57;;;13.50;99.90;;;;;;5029068;28;20540;-85
2021/05/22 11:00:18;;;;;;;27.03;2.53;;;13.40;99.90;;;;;;5028921;28;21006;-84
2021/05/22 11:02:47;;;;;;;28.07;2.30;;;13.40;99.90;;;;;;5031387;28;20450;-86
2021/05/22 11:05:35;;;;;;;39.90;3.37;;;13.40;99.90;;;;;;5034042;28;20484;-83
2021/05/22 11:08:28;;;;;;;17.77;1.87;;;13.30;99.90;;;;;;5033309;28;20461;-84
2021/05/22 11:10:59;;;;;;;19.13;2.10;;;13.30;99.90;;;;;;5034847;28;20982;-82
2021/05/22 11:13:37;;;;;;;15.30;1.50;;;13.50;99.90;;;;;;5029513;28;20465;-84
2021/05/22 11:16:06;;;;;;;15.00;1.73;;;13.60;99.90;;;;;;5032699;28;20477;-84
2021/05/22 11:19:04;;;;;;;17.47;5.77;;;13.40;99.90;;;;;;5030527;28;20477;-83
2021/05/22 11:21:30;;;;;;;15.73;1.67;;;13.20;99.90;;;;;;4948425;29;20450;-83
2021/05/22 11:24:14;;;;;;;14.83;1.77;;;13.20;99.90;;;;;;5008776;28;20492;-84
2021/05/22 11:27:04;;;;;;;15.90;1.57;;;13.10;99.90;;;;;;5024136;28;20964;-85
2021/05/22 11:29:57;;;;;;;16.27;1.50;;;13.00;99.90;;;;;;5024498;28;21036;-84
2021/05/22 11:32:47;;;;;;;15.67;2.10;;;13.10;99.90;;;;;;5020919;28;20442;-84
2021/05/22 11:35:46;;;;;;;13.40;1.30;;;13.40;99.90;;;;;;5023831;28;20453;-86
2021/05/22 11:38:38;;;;;;;15.10;1.47;;;13.60;99.90;;;;;;5026103;28;20458;-86
2021/05/22 11:41:13;;;;;;;15.43;1.43;;;13.70;99.90;;;;;;5024650;28;20454;-84
2021/05/22 11:43:45;;;;;;;14.90;1.73;;;14.00;99.90;;;;;;5031011;28;20511;-86
2021/05/22 11:46:14;;;;;;;15.30;1.60;;;14.10;99.90;;;;;;5028568;28;20450;-86
2021/05/22 11:48:43;;;;;;;16.77;1.93;;;13.70;99.90;;;;;;5028308;28;20495;-84
2021/05/22 11:51:18;;;;;;;22.83;2.00;;;13.50;99.90;;;;;;5027582;28;20485;-84
2021/05/22 11:53:49;;;;;;;17.73;1.40;;;13.30;99.90;;;;;;5025566;28;20453;-86
2021/05/22 11:56:17;;;;;;;21.20;2.30;;;13.10;99.90;;;;;;5028634;28;20500;-85
2021/05/22 11:58:47;;;;;;;18.30;2.60;;;13.20;99.90;;;;;;5027730;28;20500;-85
2021/05/22 12:01:16;;;;;;;12.33;1.30;;;13.00;99.90;;;;;;5032629;28;20469;-83
2021/05/22 12:03:43;;;;;;;18.40;2.07;;;12.80;99.90;;;;;;5034297;28;20560;-85
2021/05/22 12:06:20;;;;;;;12.60;1.77;;;12.70;99.90;;;;;;5037735;28;20421;-85
2021/05/22 12:09:05;;;;;;;13.90;1.50;;;12.70;99.90;;;;;;5032906;28;20529;-85
2021/05/22 12:11:32;;;;;;;19.20;1.93;;;12.60;99.90;;;;;;5039299;28;20492;-84
2021/05/22 12:14:00;;;;;;;13.67;1.40;;;12.60;99.90;;;;;;5034796;28;20452;-84
2021/05/22 12:16:26;;;;;;;13.43;1.93;;;12.60;99.90;;;;;;5036695;28;20449;-83
2021/05/22 12:18:53;;;;;;;14.47;1.80;;;12.50;99.90;;;;;;5036946;28;20614;-88
2021/05/22 12:21:29;;;;;;;12.13;1.67;;;12.50;99.90;;;;;;5037503;28;20476;-79
2021/05/22 12:24:06;;;;;;;14.77;2.03;;;12.30;99.90;;;;;;5020673;28;20445;-83
2021/05/22 12:26:46;;;;;;;14.07;2.10;;;12.20;99.90;;;;;;5026259;28;20501;-82